De Armanville, Alabama
Current Conditions -  °F | °C
As of 9:53 AM on Friday 19 Dec 2014 (Local Time) from KANB Reporting Station
Clear Clear  
Wind Chill: 41°   Ceiling: Unl
Heat Index: 41°   Visibility: 9mi
Dew Point: 35°   Wind: 0mph
Humidity: 79%   Direction: NA
Pressure: 30.22"   Gusts: NA
Location:  33.62°N, 85.75°W
Report Text: KANB 191553Z AUTO 00000KT 9SM CLR 05/02 A3022 RMK AO2 SLP245 T00500017
Loading
Personal Weather Stations






























Interactive Weather Map New forecast layout! Learn more

10-Day Weather Forecast

Advertisements
Track Severe Weather on mobile